Terminal Aerodrome Forecast
Issued by NWS

Home | Current Version | Previous Version | Text Only | Print | Product List | Glossary On
Versions: 1 2 3 4 5 6 7 8 9 10 11 12 13 14 15 16 17 18 19 20
307
FTUS46 KPDT 121739
TAFDLS
TAF
KDLS 121739Z 1218/1318 00000KT 2SM BR SCT005 OVC022
      TEMPO 1218/1220 5SM BR SCT022 OVC050
     FM122000 31008KT 5SM -SHRA BR SCT025 OVC050
     FM130300 31006KT P6SM SCT050
     FM130900 31003KT 6SM BR SCT035 BKN050=

USA.gov is the U.S. government's official web portal to all federal, state and local government web resources and services.